sensor_id;sensor_type;location;lat;lon;timestamp;pressure;altitude;pressure_sealevel;temperature;humidity
69689;BME280;56932;38.402;-96.176;2023-02-03T00:00:42;98859.97;;;19.89;14.77
69689;BME280;56932;38.402;-96.176;2023-02-03T00:03:08;98869.62;;;19.42;15.05
69689;BME280;56932;38.402;-96.176;2023-02-03T00:05:34;98872.66;;;19.48;15.15
69689;BME280;56932;38.402;-96.176;2023-02-03T00:07:59;98874.74;;;19.87;14.81
69689;BME280;56932;38.402;-96.176;2023-02-03T00:10:25;98872.78;;;19.23;15.34
69689;BME280;56932;38.402;-96.176;2023-02-03T00:12:51;98881.04;;;18.98;15.33
69689;BME280;56932;38.402;-96.176;2023-02-03T00:15:16;98886.04;;;18.55;15.57
69689;BME280;56932;38.402;-96.176;2023-02-03T00:17:42;98895.67;;;18.36;15.66
69689;BME280;56932;38.402;-96.176;2023-02-03T00:20:08;98905.03;;;19.95;14.86
69689;BME280;56932;38.402;-96.176;2023-02-03T00:22:33;98905.07;;;20.05;14.91
69689;BME280;56932;38.402;-96.176;2023-02-03T00:24:58;98907.83;;;19.80;15.08
69689;BME280;56932;38.402;-96.176;2023-02-03T00:27:24;98912.38;;;19.38;15.06
69689;BME280;56932;38.402;-96.176;2023-02-03T00:29:49;98921.68;;;19.27;15.23
69689;BME280;56932;38.402;-96.176;2023-02-03T00:32:15;98922.80;;;19.47;14.99
69689;BME280;56932;38.402;-96.176;2023-02-03T00:34:41;98925.46;;;19.81;15.05
69689;BME280;56932;38.402;-96.176;2023-02-03T00:37:06;98935.76;;;19.75;15.05
69689;BME280;56932;38.402;-96.176;2023-02-03T00:39:34;98940.98;;;18.99;15.32
69689;BME280;56932;38.402;-96.176;2023-02-03T00:41:58;98948.51;;;19.20;15.35
69689;BME280;56932;38.402;-96.176;2023-02-03T00:44:23;98963.68;;;19.23;15.25
69689;BME280;56932;38.402;-96.176;2023-02-03T00:46:49;98970.48;;;19.29;15.15
69689;BME280;56932;38.402;-96.176;2023-02-03T00:49:15;98977.37;;;18.42;15.52
69689;BME280;56932;38.402;-96.176;2023-02-03T00:51:40;98982.02;;;18.74;15.33
69689;BME280;56932;38.402;-96.176;2023-02-03T00:54:06;98991.55;;;19.47;15.14
69689;BME280;56932;38.402;-96.176;2023-02-03T00:56:31;98995.57;;;19.05;15.38
69689;BME280;56932;38.402;-96.176;2023-02-03T00:58:57;99006.01;;;18.42;15.45
69689;BME280;56932;38.402;-96.176;2023-02-03T01:01:22;99008.79;;;19.00;15.38
69689;BME280;56932;38.402;-96.176;2023-02-03T01:03:48;99008.91;;;18.52;15.57
69689;BME280;56932;38.402;-96.176;2023-02-03T01:06:16;99010.42;;;17.95;15.98
69689;BME280;56932;38.402;-96.176;2023-02-03T01:08:39;99011.55;;;17.67;16.63
69689;BME280;56932;38.402;-96.176;2023-02-03T01:11:07;99019.83;;;17.55;16.61
69689;BME280;56932;38.402;-96.176;2023-02-03T01:13:30;99025.15;;;17.66;16.57
69689;BME280;56932;38.402;-96.176;2023-02-03T01:15:56;99027.42;;;17.72;16.72
69689;BME280;56932;38.402;-96.176;2023-02-03T01:18:21;99031.85;;;17.76;16.57
69689;BME280;56932;38.402;-96.176;2023-02-03T01:20:47;99044.83;;;18.25;16.11
69689;BME280;56932;38.402;-96.176;2023-02-03T01:23:13;99048.13;;;18.29;16.28
69689;BME280;56932;38.402;-96.176;2023-02-03T01:25:38;99052.69;;;18.76;16.04
69689;BME280;56932;38.402;-96.176;2023-02-03T01:28:04;99047.55;;;18.66;16.15
69689;BME280;56932;38.402;-96.176;2023-02-03T01:30:29;99056.60;;;18.64;16.03
69689;BME280;56932;38.402;-96.176;2023-02-03T01:32:55;99060.37;;;18.99;15.89
69689;BME280;56932;38.402;-96.176;2023-02-03T01:35:20;99062.16;;;18.36;16.11
69689;BME280;56932;38.402;-96.176;2023-02-03T01:37:46;99067.88;;;19.10;16.04
69689;BME280;56932;38.402;-96.176;2023-02-03T01:40:12;99072.97;;;19.25;15.87
69689;BME280;56932;38.402;-96.176;2023-02-03T01:42:37;99079.43;;;19.21;15.79
69689;BME280;56932;38.402;-96.176;2023-02-03T01:45:03;99080.11;;;19.28;16.07
69689;BME280;56932;38.402;-96.176;2023-02-03T01:47:30;99081.48;;;18.83;16.10
69689;BME280;56932;38.402;-96.176;2023-02-03T01:49:58;99079.40;;;19.00;16.18
69689;BME280;56932;38.402;-96.176;2023-02-03T01:52:19;99095.88;;;19.04;16.05
69689;BME280;56932;38.402;-96.176;2023-02-03T01:54:47;99097.59;;;18.64;16.32
69689;BME280;56932;38.402;-96.176;2023-02-03T01:57:15;99109.02;;;18.84;16.24
69689;BME280;56932;38.402;-96.176;2023-02-03T01:59:36;99107.82;;;18.77;16.27
69689;BME280;56932;38.402;-96.176;2023-02-03T02:02:03;99109.51;;;19.11;16.19
69689;BME280;56932;38.402;-96.176;2023-02-03T02:04:31;99117.52;;;19.22;16.20
69689;BME280;56932;38.402;-96.176;2023-02-03T02:06:54;99123.66;;;19.01;16.63
69689;BME280;56932;38.402;-96.176;2023-02-03T02:09:18;99133.29;;;18.72;16.26
69689;BME280;56932;38.402;-96.176;2023-02-03T02:11:43;99131.51;;;19.01;16.57
69689;BME280;56932;38.402;-96.176;2023-02-03T02:14:14;99136.63;;;18.63;16.54
69689;BME280;56932;38.402;-96.176;2023-02-03T02:16:40;99136.86;;;18.74;16.69
69689;BME280;56932;38.402;-96.176;2023-02-03T02:21:35;99156.37;;;18.76;16.59
69689;BME280;56932;38.402;-96.176;2023-02-03T02:24:02;99162.98;;;19.09;16.37
69689;BME280;56932;38.402;-96.176;2023-02-03T02:26:28;99165.35;;;18.05;16.70
69689;BME280;56932;38.402;-96.176;2023-02-03T02:28:55;99176.88;;;19.39;16.18
69689;BME280;56932;38.402;-96.176;2023-02-03T02:33:36;99178.59;;;19.60;16.00
69689;BME280;56932;38.402;-96.176;2023-02-03T02:36:05;99183.13;;;18.78;16.34
69689;BME280;56932;38.402;-96.176;2023-02-03T02:38:34;99187.34;;;19.58;15.97
69689;BME280;56932;38.402;-96.176;2023-02-03T02:40:53;99188.49;;;18.99;16.33
69689;BME280;56932;38.402;-96.176;2023-02-03T02:43:20;99186.65;;;20.33;15.22
69689;BME280;56932;38.402;-96.176;2023-02-03T02:45:45;99193.48;;;19.50;15.72
69689;BME280;56932;38.402;-96.176;2023-02-03T02:48:12;99200.40;;;20.91;15.11
69689;BME280;56932;38.402;-96.176;2023-02-03T02:50:36;99200.45;;;20.29;15.30
69689;BME280;56932;38.402;-96.176;2023-02-03T02:52:57;99195.64;;;21.13;14.77
69689;BME280;56932;38.402;-96.176;2023-02-03T02:55:25;99196.05;;;20.68;15.04
69689;BME280;56932;38.402;-96.176;2023-02-03T02:57:49;99198.53;;;21.18;14.89
69689;BME280;56932;38.402;-96.176;2023-02-03T03:00:15;99214.02;;;20.36;15.06
69689;BME280;56932;38.402;-96.176;2023-02-03T03:02:39;99212.53;;;20.83;14.84
69689;BME280;56932;38.402;-96.176;2023-02-03T03:05:07;99212.33;;;21.11;14.68
69689;BME280;56932;38.402;-96.176;2023-02-03T03:07:34;99216.28;;;20.59;15.36
69689;BME280;56932;38.402;-96.176;2023-02-03T03:10:00;99223.93;;;21.42;15.00
69689;BME280;56932;38.402;-96.176;2023-02-03T03:12:23;99235.48;;;21.00;15.38
69689;BME280;56932;38.402;-96.176;2023-02-03T03:14:51;99242.04;;;20.76;15.87
69689;BME280;56932;38.402;-96.176;2023-02-03T03:17:18;99250.01;;;20.95;16.16
69689;BME280;56932;38.402;-96.176;2023-02-03T03:19:40;99246.54;;;21.05;16.31
69689;BME280;56932;38.402;-96.176;2023-02-03T03:22:08;99252.73;;;20.39;16.82
69689;BME280;56932;38.402;-96.176;2023-02-03T03:24:32;99259.03;;;20.68;16.60
69689;BME280;56932;38.402;-96.176;2023-02-03T03:26:58;99259.19;;;20.96;16.61
69689;BME280;56932;38.402;-96.176;2023-02-03T03:29:23;99261.17;;;21.01;16.61
69689;BME280;56932;38.402;-96.176;2023-02-03T03:31:46;99267.54;;;20.89;16.71
69689;BME280;56932;38.402;-96.176;2023-02-03T03:34:13;99271.42;;;20.99;16.54
69689;BME280;56932;38.402;-96.176;2023-02-03T03:36:41;99277.96;;;20.63;16.66
69689;BME280;56932;38.402;-96.176;2023-02-03T03:39:08;99280.41;;;20.60;16.56
69689;BME280;56932;38.402;-96.176;2023-02-03T03:41:38;99287.96;;;20.57;16.38
69689;BME280;56932;38.402;-96.176;2023-02-03T03:43:55;99298.02;;;20.64;16.39
69689;BME280;56932;38.402;-96.176;2023-02-03T03:46:22;99305.07;;;19.91;16.63
69689;BME280;56932;38.402;-96.176;2023-02-03T03:48:49;99311.28;;;20.24;16.62
69689;BME280;56932;38.402;-96.176;2023-02-03T03:51:15;99314.07;;;20.47;16.42
69689;BME280;56932;38.402;-96.176;2023-02-03T03:53:39;99312.55;;;20.32;16.39
69689;BME280;56932;38.402;-96.176;2023-02-03T03:56:03;99324.12;;;20.23;16.36
69689;BME280;56932;38.402;-96.176;2023-02-03T03:58:30;99326.77;;;19.01;16.87
69689;BME280;56932;38.402;-96.176;2023-02-03T04:00:55;99331.02;;;20.32;16.30
69689;BME280;56932;38.402;-96.176;2023-02-03T04:03:22;99335.47;;;19.87;16.16
69689;BME280;56932;38.402;-96.176;2023-02-03T04:05:44;99335.73;;;20.62;15.75
69689;BME280;56932;38.402;-96.176;2023-02-03T04:08:09;99333.00;;;20.03;16.04
69689;BME280;56932;38.402;-96.176;2023-02-03T04:10:36;99335.81;;;20.18;15.85
69689;BME280;56932;38.402;-96.176;2023-02-03T04:13:01;99337.54;;;20.13;15.81
69689;BME280;56932;38.402;-96.176;2023-02-03T04:15:27;99343.21;;;19.90;15.86
69689;BME280;56932;38.402;-96.176;2023-02-03T04:17:52;99345.09;;;20.17;15.75
69689;BME280;56932;38.402;-96.176;2023-02-03T04:20:17;99348.89;;;19.59;15.72
69689;BME280;56932;38.402;-96.176;2023-02-03T04:22:43;99345.86;;;19.55;15.84
69689;BME280;56932;38.402;-96.176;2023-02-03T04:25:08;99342.00;;;19.98;15.69
69689;BME280;56932;38.402;-96.176;2023-02-03T04:27:34;99341.17;;;19.72;15.53
69689;BME280;56932;38.402;-96.176;2023-02-03T04:29:59;99346.94;;;19.92;15.47
69689;BME280;56932;38.402;-96.176;2023-02-03T04:32:25;99349.86;;;19.40;15.42
69689;BME280;56932;38.402;-96.176;2023-02-03T04:34:50;99352.37;;;20.19;15.29
69689;BME280;56932;38.402;-96.176;2023-02-03T04:37:16;99359.63;;;19.09;15.44
69689;BME280;56932;38.402;-96.176;2023-02-03T04:39:41;99357.09;;;20.06;15.22
69689;BME280;56932;38.402;-96.176;2023-02-03T04:42:07;99358.12;;;19.87;15.06
69689;BME280;56932;38.402;-96.176;2023-02-03T04:44:32;99356.42;;;19.49;15.14
69689;BME280;56932;38.402;-96.176;2023-02-03T04:46:58;99370.13;;;19.32;15.16
69689;BME280;56932;38.402;-96.176;2023-02-03T04:49:24;99373.12;;;19.76;14.99
69689;BME280;56932;38.402;-96.176;2023-02-03T04:51:49;99383.25;;;19.60;14.99
69689;BME280;56932;38.402;-96.176;2023-02-03T04:54:15;99381.14;;;17.82;15.91
69689;BME280;56932;38.402;-96.176;2023-02-03T04:56:40;99382.26;;;19.65;15.02
69689;BME280;56932;38.402;-96.176;2023-02-03T04:59:06;99383.53;;;19.25;14.99
69689;BME280;56932;38.402;-96.176;2023-02-03T05:01:32;99387.29;;;19.49;14.82
69689;BME280;56932;38.402;-96.176;2023-02-03T05:03:57;99387.59;;;18.88;15.09
69689;BME280;56932;38.402;-96.176;2023-02-03T05:06:23;99395.97;;;19.22;14.89
69689;BME280;56932;38.402;-96.176;2023-02-03T05:08:48;99399.75;;;18.85;15.10
69689;BME280;56932;38.402;-96.176;2023-02-03T05:11:14;99407.18;;;19.42;14.81
69689;BME280;56932;38.402;-96.176;2023-02-03T05:13:39;99402.28;;;19.29;14.80
69689;BME280;56932;38.402;-96.176;2023-02-03T05:16:06;99411.31;;;19.16;14.81
69689;BME280;56932;38.402;-96.176;2023-02-03T05:18:31;99414.28;;;19.14;14.60
69689;BME280;56932;38.402;-96.176;2023-02-03T05:20:56;99409.02;;;18.94;14.65
69689;BME280;56932;38.402;-96.176;2023-02-03T05:23:22;99403.64;;;19.22;14.58
69689;BME280;56932;38.402;-96.176;2023-02-03T05:25:48;99412.13;;;18.88;14.74
69689;BME280;56932;38.402;-96.176;2023-02-03T05:28:14;99422.52;;;18.36;14.88
69689;BME280;56932;38.402;-96.176;2023-02-03T05:30:39;99429.27;;;19.01;14.62
69689;BME280;56932;38.402;-96.176;2023-02-03T05:33:04;99416.63;;;18.47;14.92
69689;BME280;56932;38.402;-96.176;2023-02-03T05:35:30;99407.30;;;18.33;15.02
69689;BME280;56932;38.402;-96.176;2023-02-03T05:37:56;99403.31;;;17.93;15.23
69689;BME280;56932;38.402;-96.176;2023-02-03T05:40:21;99401.36;;;17.40;15.43
69689;BME280;56932;38.402;-96.176;2023-02-03T05:42:47;99405.42;;;17.23;15.89
69689;BME280;56932;38.402;-96.176;2023-02-03T05:45:13;99402.09;;;17.36;15.97
69689;BME280;56932;38.402;-96.176;2023-02-03T05:47:38;99404.61;;;17.79;15.68
69689;BME280;56932;38.402;-96.176;2023-02-03T05:50:04;99400.53;;;17.47;15.97
69689;BME280;56932;38.402;-96.176;2023-02-03T05:52:29;99396.06;;;17.45;15.74
69689;BME280;56932;38.402;-96.176;2023-02-03T05:54:54;99397.89;;;18.06;15.69
69689;BME280;56932;38.402;-96.176;2023-02-03T05:57:20;99403.49;;;17.36;15.80
69689;BME280;56932;38.402;-96.176;2023-02-03T05:59:45;99421.88;;;18.40;15.55
69689;BME280;56932;38.402;-96.176;2023-02-03T06:02:11;99427.23;;;18.40;15.30
69689;BME280;56932;38.402;-96.176;2023-02-03T06:04:37;99436.41;;;16.99;15.71
69689;BME280;56932;38.402;-96.176;2023-02-03T06:07:02;99438.97;;;18.26;15.40
69689;BME280;56932;38.402;-96.176;2023-02-03T06:09:28;99448.36;;;18.17;15.49
69689;BME280;56932;38.402;-96.176;2023-02-03T06:11:53;99441.96;;;18.79;15.33
69689;BME280;56932;38.402;-96.176;2023-02-03T06:14:19;99439.00;;;18.18;15.29
69689;BME280;56932;38.402;-96.176;2023-02-03T06:16:45;99441.15;;;18.76;15.11
69689;BME280;56932;38.402;-96.176;2023-02-03T06:19:10;99438.08;;;18.19;15.32
69689;BME280;56932;38.402;-96.176;2023-02-03T06:21:36;99434.46;;;18.70;15.30
69689;BME280;56932;38.402;-96.176;2023-02-03T06:24:01;99429.62;;;19.09;14.96
69689;BME280;56932;38.402;-96.176;2023-02-03T06:26:27;99438.88;;;18.74;15.05
69689;BME280;56932;38.402;-96.176;2023-02-03T06:28:53;99442.15;;;19.07;15.13
69689;BME280;56932;38.402;-96.176;2023-02-03T06:31:18;99440.35;;;18.29;15.19
69689;BME280;56932;38.402;-96.176;2023-02-03T06:33:44;99444.18;;;19.26;14.80
69689;BME280;56932;38.402;-96.176;2023-02-03T06:36:09;99450.31;;;19.41;14.96
69689;BME280;56932;38.402;-96.176;2023-02-03T06:38:35;99449.54;;;18.98;15.07
69689;BME280;56932;38.402;-96.176;2023-02-03T06:41:00;99442.08;;;18.87;15.26
69689;BME280;56932;38.402;-96.176;2023-02-03T06:43:26;99439.50;;;18.50;15.23
69689;BME280;56932;38.402;-96.176;2023-02-03T06:45:52;99448.19;;;19.02;14.94
69689;BME280;56932;38.402;-96.176;2023-02-03T06:48:17;99447.85;;;18.50;15.05
69689;BME280;56932;38.402;-96.176;2023-02-03T06:50:43;99440.65;;;18.29;15.33
69689;BME280;56932;38.402;-96.176;2023-02-03T06:53:08;99441.76;;;18.92;15.23
69689;BME280;56932;38.402;-96.176;2023-02-03T06:55:34;99445.02;;;18.43;15.23
69689;BME280;56932;38.402;-96.176;2023-02-03T06:57:59;99433.42;;;19.30;14.73
69689;BME280;56932;38.402;-96.176;2023-02-03T07:00:25;99426.97;;;19.46;14.57
69689;BME280;56932;38.402;-96.176;2023-02-03T07:02:53;99425.85;;;19.08;14.76
69689;BME280;56932;38.402;-96.176;2023-02-03T07:05:16;99429.35;;;18.53;14.79
69689;BME280;56932;38.402;-96.176;2023-02-03T07:07:41;99431.52;;;18.93;14.80
69689;BME280;56932;38.402;-96.176;2023-02-03T07:10:07;99434.88;;;19.11;14.69
69689;BME280;56932;38.402;-96.176;2023-02-03T07:12:32;99438.35;;;18.94;14.76
69689;BME280;56932;38.402;-96.176;2023-02-03T07:14:58;99437.67;;;18.82;14.77
69689;BME280;56932;38.402;-96.176;2023-02-03T07:17:23;99442.63;;;19.07;14.44
69689;BME280;56932;38.402;-96.176;2023-02-03T07:19:49;99439.07;;;18.61;14.80
69689;BME280;56932;38.402;-96.176;2023-02-03T07:22:15;99442.96;;;18.49;14.83
69689;BME280;56932;38.402;-96.176;2023-02-03T07:24:40;99441.02;;;19.39;14.28
69689;BME280;56932;38.402;-96.176;2023-02-03T07:27:06;99445.18;;;19.89;14.02
69689;BME280;56932;38.402;-96.176;2023-02-03T07:29:31;99444.73;;;19.29;14.06
69689;BME280;56932;38.402;-96.176;2023-02-03T07:31:57;99441.98;;;18.53;14.75
69689;BME280;56932;38.402;-96.176;2023-02-03T07:34:22;99441.62;;;19.80;13.67
69689;BME280;56932;38.402;-96.176;2023-02-03T07:36:48;99444.30;;;20.52;13.50
69689;BME280;56932;38.402;-96.176;2023-02-03T07:39:14;99446.88;;;20.30;13.33
69689;BME280;56932;38.402;-96.176;2023-02-03T07:41:39;99440.49;;;20.21;13.31
69689;BME280;56932;38.402;-96.176;2023-02-03T07:44:05;99442.81;;;21.19;12.96
69689;BME280;56932;38.402;-96.176;2023-02-03T07:46:30;99448.64;;;20.49;13.15
69689;BME280;56932;38.402;-96.176;2023-02-03T07:48:56;99449.20;;;20.70;13.18
69689;BME280;56932;38.402;-96.176;2023-02-03T07:51:21;99448.02;;;19.99;13.18
69689;BME280;56932;38.402;-96.176;2023-02-03T07:53:47;99450.13;;;20.88;12.95
69689;BME280;56932;38.402;-96.176;2023-02-03T07:56:13;99454.71;;;20.58;12.96
69689;BME280;56932;38.402;-96.176;2023-02-03T07:58:38;99464.50;;;20.31;13.02
69689;BME280;56932;38.402;-96.176;2023-02-03T08:01:09;99465.45;;;20.29;12.95
69689;BME280;56932;38.402;-96.176;2023-02-03T08:03:29;99467.61;;;20.15;13.01
69689;BME280;56932;38.402;-96.176;2023-02-03T08:05:54;99463.16;;;20.21;12.89
69689;BME280;56932;38.402;-96.176;2023-02-03T08:08:20;99463.50;;;20.01;12.86
69689;BME280;56932;38.402;-96.176;2023-02-03T08:10:46;99466.15;;;20.03;12.95
69689;BME280;56932;38.402;-96.176;2023-02-03T08:13:12;99464.89;;;20.46;12.81
69689;BME280;56932;38.402;-96.176;2023-02-03T08:15:37;99464.68;;;20.39;12.82
69689;BME280;56932;38.402;-96.176;2023-02-03T08:18:02;99468.66;;;20.69;12.61
69689;BME280;56932;38.402;-96.176;2023-02-03T08:20:28;99478.83;;;20.11;12.75
69689;BME280;56932;38.402;-96.176;2023-02-03T08:22:53;99475.84;;;20.02;12.88
69689;BME280;56932;38.402;-96.176;2023-02-03T08:25:19;99470.99;;;19.31;12.71
69689;BME280;56932;38.402;-96.176;2023-02-03T08:27:44;99482.58;;;20.18;12.66
69689;BME280;56932;38.402;-96.176;2023-02-03T08:30:13;99493.28;;;20.18;12.66
69689;BME280;56932;38.402;-96.176;2023-02-03T08:32:35;99491.87;;;19.71;12.72
69689;BME280;56932;38.402;-96.176;2023-02-03T08:35:01;99496.65;;;19.74;12.81
69689;BME280;56932;38.402;-96.176;2023-02-03T08:37:26;99496.29;;;19.71;12.77
69689;BME280;56932;38.402;-96.176;2023-02-03T08:39:52;99489.57;;;19.56;12.81
69689;BME280;56932;38.402;-96.176;2023-02-03T08:42:21;99483.25;;;19.06;12.79
69689;BME280;56932;38.402;-96.176;2023-02-03T08:44:43;99478.31;;;19.93;12.79
69689;BME280;56932;38.402;-96.176;2023-02-03T08:47:09;99475.98;;;19.42;12.77
69689;BME280;56932;38.402;-96.176;2023-02-03T08:49:34;99480.80;;;19.64;12.62
69689;BME280;56932;38.402;-96.176;2023-02-03T08:52:00;99485.72;;;19.13;12.97
69689;BME280;56932;38.402;-96.176;2023-02-03T08:54:26;99481.72;;;19.37;12.70
69689;BME280;56932;38.402;-96.176;2023-02-03T08:56:51;99484.39;;;19.30;12.75
69689;BME280;56932;38.402;-96.176;2023-02-03T08:59:17;99478.98;;;19.44;12.62
69689;BME280;56932;38.402;-96.176;2023-02-03T09:01:42;99482.89;;;19.28;12.67
69689;BME280;56932;38.402;-96.176;2023-02-03T09:04:08;99487.45;;;19.39;12.68
69689;BME280;56932;38.402;-96.176;2023-02-03T09:06:34;99496.13;;;19.06;12.67
69689;BME280;56932;38.402;-96.176;2023-02-03T09:08:59;99496.30;;;19.59;12.61
69689;BME280;56932;38.402;-96.176;2023-02-03T09:11:24;99496.79;;;19.41;12.55
69689;BME280;56932;38.402;-96.176;2023-02-03T09:13:53;99497.54;;;19.17;12.52
69689;BME280;56932;38.402;-96.176;2023-02-03T09:16:18;99496.33;;;18.96;12.61
69689;BME280;56932;38.402;-96.176;2023-02-03T09:18:41;99500.22;;;19.10;12.62
69689;BME280;56932;38.402;-96.176;2023-02-03T09:21:08;99500.68;;;19.27;12.61
69689;BME280;56932;38.402;-96.176;2023-02-03T09:23:32;99498.72;;;19.02;12.64
69689;BME280;56932;38.402;-96.176;2023-02-03T09:26:01;99491.90;;;19.21;12.62
69689;BME280;56932;38.402;-96.176;2023-02-03T09:28:23;99491.12;;;19.39;12.41
69689;BME280;56932;38.402;-96.176;2023-02-03T09:30:49;99495.73;;;19.23;12.62
69689;BME280;56932;38.402;-96.176;2023-02-03T09:33:15;99501.13;;;17.29;13.61
69689;BME280;56932;38.402;-96.176;2023-02-03T09:35:40;99501.97;;;17.08;13.95
69689;BME280;56932;38.402;-96.176;2023-02-03T09:38:06;99491.67;;;17.09;14.08
69689;BME280;56932;38.402;-96.176;2023-02-03T09:40:33;99484.62;;;17.79;13.77
69689;BME280;56932;38.402;-96.176;2023-02-03T09:43:07;99477.02;;;17.32;14.03
69689;BME280;56932;38.402;-96.176;2023-02-03T09:45:27;99463.70;;;16.95;14.16
69689;BME280;56932;38.402;-96.176;2023-02-03T09:47:47;99460.73;;;18.07;13.77
69689;BME280;56932;38.402;-96.176;2023-02-03T09:50:19;99466.55;;;17.50;13.80
69689;BME280;56932;38.402;-96.176;2023-02-03T09:52:40;99465.27;;;17.64;13.93
69689;BME280;56932;38.402;-96.176;2023-02-03T09:55:10;99476.82;;;17.87;13.85
69689;BME280;56932;38.402;-96.176;2023-02-03T09:57:34;99481.54;;;17.76;13.78
69689;BME280;56932;38.402;-96.176;2023-02-03T09:59:57;99479.85;;;18.19;13.58
69689;BME280;56932;38.402;-96.176;2023-02-03T10:02:35;99486.49;;;17.75;13.60
69689;BME280;56932;38.402;-96.176;2023-02-03T10:04:52;99489.83;;;18.53;13.59
69689;BME280;56932;38.402;-96.176;2023-02-03T10:07:16;99488.71;;;18.83;13.46
69689;BME280;56932;38.402;-96.176;2023-02-03T10:09:48;99476.11;;;18.41;13.73
69689;BME280;56932;38.402;-96.176;2023-02-03T10:14:40;99456.11;;;18.55;13.26
69689;BME280;56932;38.402;-96.176;2023-02-03T10:17:03;99458.18;;;18.48;13.56
69689;BME280;56932;38.402;-96.176;2023-02-03T10:19:26;99457.69;;;18.15;13.55
69689;BME280;56932;38.402;-96.176;2023-02-03T10:21:47;99448.51;;;18.97;13.36
69689;BME280;56932;38.402;-96.176;2023-02-03T10:24:14;99446.46;;;18.73;13.52
69689;BME280;56932;38.402;-96.176;2023-02-03T10:26:37;99453.64;;;18.40;13.52
69689;BME280;56932;38.402;-96.176;2023-02-03T10:29:07;99453.74;;;18.82;13.51
69689;BME280;56932;38.402;-96.176;2023-02-03T10:31:31;99445.56;;;18.41;13.46
69689;BME280;56932;38.402;-96.176;2023-02-03T10:33:58;99440.88;;;18.47;13.70
69689;BME280;56932;38.402;-96.176;2023-02-03T10:36:20;99445.43;;;18.16;13.40
69689;BME280;56932;38.402;-96.176;2023-02-03T10:38:53;99448.12;;;18.63;13.52
69689;BME280;56932;38.402;-96.176;2023-02-03T10:41:10;99455.77;;;18.26;13.75
69689;BME280;56932;38.402;-96.176;2023-02-03T10:43:35;99453.57;;;18.29;13.60
69689;BME280;56932;38.402;-96.176;2023-02-03T10:46:01;99453.40;;;18.55;13.71
69689;BME280;56932;38.402;-96.176;2023-02-03T10:48:27;99451.76;;;18.16;13.69
69689;BME280;56932;38.402;-96.176;2023-02-03T10:50:57;99453.83;;;18.04;13.75
69689;BME280;56932;38.402;-96.176;2023-02-03T10:53:22;99452.81;;;18.24;13.39
69689;BME280;56932;38.402;-96.176;2023-02-03T10:55:44;99447.57;;;18.74;13.53
69689;BME280;56932;38.402;-96.176;2023-02-03T10:58:15;99446.23;;;19.20;13.35
69689;BME280;56932;38.402;-96.176;2023-02-03T11:00:34;99442.84;;;19.17;13.15
69689;BME280;56932;38.402;-96.176;2023-02-03T11:03:05;99436.26;;;18.58;13.58
69689;BME280;56932;38.402;-96.176;2023-02-03T11:05:25;99447.44;;;18.53;13.32
69689;BME280;56932;38.402;-96.176;2023-02-03T11:07:50;99452.96;;;19.37;12.88
69689;BME280;56932;38.402;-96.176;2023-02-03T11:12:41;99442.81;;;19.05;12.95
69689;BME280;56932;38.402;-96.176;2023-02-03T11:17:35;99442.62;;;20.26;12.32
69689;BME280;56932;38.402;-96.176;2023-02-03T11:20:03;99445.57;;;20.79;11.98
69689;BME280;56932;38.402;-96.176;2023-02-03T11:22:28;99447.59;;;19.97;12.10
69689;BME280;56932;38.402;-96.176;2023-02-03T11:24:49;99446.25;;;20.49;12.06
69689;BME280;56932;38.402;-96.176;2023-02-03T11:27:17;99469.12;;;20.52;11.79
69689;BME280;56932;38.402;-96.176;2023-02-03T11:29:42;99464.93;;;20.66;11.97
69689;BME280;56932;38.402;-96.176;2023-02-03T11:32:15;99457.07;;;20.28;11.97
69689;BME280;56932;38.402;-96.176;2023-02-03T11:34:33;99466.03;;;20.29;11.80
69689;BME280;56932;38.402;-96.176;2023-02-03T11:36:57;99469.52;;;20.35;11.81
69689;BME280;56932;38.402;-96.176;2023-02-03T11:39:27;99474.94;;;20.13;11.77
69689;BME280;56932;38.402;-96.176;2023-02-03T11:41:48;99474.20;;;20.36;11.77
69689;BME280;56932;38.402;-96.176;2023-02-03T11:44:18;99467.94;;;20.47;11.87
69689;BME280;56932;38.402;-96.176;2023-02-03T11:46:39;99470.70;;;20.31;11.68
69689;BME280;56932;38.402;-96.176;2023-02-03T11:49:11;99473.20;;;20.21;11.85
69689;BME280;56932;38.402;-96.176;2023-02-03T11:51:36;99468.48;;;20.70;11.57
69689;BME280;56932;38.402;-96.176;2023-02-03T11:54:03;99461.43;;;20.45;11.66
69689;BME280;56932;38.402;-96.176;2023-02-03T11:56:30;99453.64;;;20.23;11.80
69689;BME280;56932;38.402;-96.176;2023-02-03T11:59:02;99448.66;;;20.10;11.77
69689;BME280;56932;38.402;-96.176;2023-02-03T12:01:20;99458.19;;;20.23;11.81
69689;BME280;56932;38.402;-96.176;2023-02-03T12:06:16;99468.13;;;20.05;11.68
69689;BME280;56932;38.402;-96.176;2023-02-03T12:08:42;99459.21;;;19.82;11.66
69689;BME280;56932;38.402;-96.176;2023-02-03T12:11:03;99459.48;;;20.24;11.55
69689;BME280;56932;38.402;-96.176;2023-02-03T12:13:36;99464.88;;;19.64;11.58
69689;BME280;56932;38.402;-96.176;2023-02-03T12:15:59;99458.67;;;19.72;11.72
69689;BME280;56932;38.402;-96.176;2023-02-03T12:18:21;99463.24;;;20.07;11.74
69689;BME280;56932;38.402;-96.176;2023-02-03T12:20:45;99459.22;;;19.69;11.69
69689;BME280;56932;38.402;-96.176;2023-02-03T12:23:08;99456.87;;;19.63;11.74
69689;BME280;56932;38.402;-96.176;2023-02-03T12:25:35;99457.65;;;19.67;11.68
69689;BME280;56932;38.402;-96.176;2023-02-03T12:28:01;99457.02;;;19.91;11.54
69689;BME280;56932;38.402;-96.176;2023-02-03T12:30:23;99450.56;;;19.23;11.54
69689;BME280;56932;38.402;-96.176;2023-02-03T12:32:50;99443.97;;;19.52;11.57
69689;BME280;56932;38.402;-96.176;2023-02-03T12:35:14;99447.00;;;19.58;11.54
69689;BME280;56932;38.402;-96.176;2023-02-03T12:37:42;99452.95;;;19.29;11.65
69689;BME280;56932;38.402;-96.176;2023-02-03T12:40:04;99453.68;;;19.81;11.56
69689;BME280;56932;38.402;-96.176;2023-02-03T12:42:29;99446.91;;;19.06;11.67
69689;BME280;56932;38.402;-96.176;2023-02-03T12:44:56;99449.47;;;19.28;11.69